createdAt,value
2018-02-11T00:00:32.043Z,20.30
2018-02-11T00:02:59.499Z,23.30
2018-02-11T00:05:26.956Z,27.70
2018-02-11T00:07:54.418Z,27.37
2018-02-11T00:10:21.867Z,28.40
2018-02-11T00:12:49.322Z,26.40
2018-02-11T00:15:16.775Z,26.87
2018-02-11T00:17:44.230Z,21.77
2018-02-11T00:20:11.691Z,23.20
2018-02-11T00:22:39.146Z,23.90
2018-02-11T00:25:06.597Z,25.37
2018-02-11T00:27:34.063Z,26.40
2018-02-11T00:30:01.522Z,28.97
2018-02-11T00:32:28.985Z,25.30
2018-02-11T00:34:56.438Z,27.30
2018-02-11T00:37:29.470Z,26.40
2018-02-11T00:39:56.919Z,25.77
2018-02-11T00:42:25.139Z,25.93
2018-02-11T00:44:52.594Z,27.40
2018-02-11T00:47:20.054Z,23.47
2018-02-11T00:49:47.514Z,25.50
2018-02-11T00:52:14.973Z,26.87
2018-02-11T00:54:42.429Z,30.73
2018-02-11T00:57:09.878Z,30.80
2018-02-11T00:59:37.330Z,32.70
2018-02-11T01:02:04.779Z,22.63
2018-02-11T01:04:32.235Z,17.33
2018-02-11T01:06:59.697Z,21.87
2018-02-11T01:09:27.146Z,20.67
2018-02-11T01:11:54.599Z,20.27
2018-02-11T01:14:22.063Z,19.30
2018-02-11T01:16:49.515Z,20.03
2018-02-11T01:19:16.971Z,17.03
2018-02-11T01:21:44.430Z,16.90
2018-02-11T01:24:11.889Z,22.40
2018-02-11T01:26:39.339Z,22.13
2018-02-11T01:29:06.798Z,17.00
2018-02-11T01:31:34.250Z,18.40
2018-02-11T01:34:01.703Z,16.80
2018-02-11T01:36:29.162Z,21.03
2018-02-11T01:38:56.623Z,20.60
2018-02-11T01:41:24.079Z,21.90
2018-02-11T01:43:51.539Z,16.30
2018-02-11T01:46:18.997Z,19.97
2018-02-11T01:48:47.214Z,18.73
2018-02-11T01:51:14.658Z,20.53
2018-02-11T01:53:42.127Z,19.20
2018-02-11T01:56:09.574Z,19.90
2018-02-11T01:58:37.026Z,18.40
2018-02-11T02:01:04.483Z,18.97
2018-02-11T02:03:31.935Z,18.73
2018-02-11T02:05:59.395Z,20.37
2018-02-11T02:08:26.844Z,16.33
2018-02-11T02:10:54.307Z,20.37
2018-02-11T02:13:21.762Z,21.67
2018-02-11T02:15:49.226Z,25.03
2018-02-11T02:18:16.678Z,18.00
2018-02-11T02:20:44.135Z,21.47
2018-02-11T02:23:11.579Z,18.40
2018-02-11T02:25:39.042Z,19.47
2018-02-11T02:28:06.490Z,22.93
2018-02-11T02:30:33.953Z,20.73
2018-02-11T02:33:01.395Z,24.30
2018-02-11T02:35:28.857Z,21.10
2018-02-11T02:37:56.315Z,20.90
2018-02-11T02:40:23.766Z,20.50
2018-02-11T02:42:51.231Z,20.50
2018-02-11T02:45:18.691Z,21.90
2018-02-11T02:47:46.151Z,18.23
2018-02-11T02:50:13.618Z,17.63
2018-02-11T02:52:41.063Z,20.57
2018-02-11T02:55:08.539Z,17.90
2018-02-11T02:57:36.770Z,18.03
2018-02-11T03:00:04.218Z,17.30
2018-02-11T03:02:31.670Z,19.53
2018-02-11T03:04:59.130Z,18.67
2018-02-11T03:07:27.350Z,16.87
2018-02-11T03:09:54.806Z,17.90
2018-02-11T03:12:22.259Z,14.63
2018-02-11T03:14:49.703Z,13.37
2018-02-11T03:17:17.163Z,15.73
2018-02-11T03:19:44.614Z,14.53
2018-02-11T03:22:12.071Z,15.93
2018-02-11T03:24:39.526Z,16.57
2018-02-11T03:27:06.987Z,14.60
2018-02-11T03:29:34.442Z,16.57
2018-02-11T03:32:01.898Z,15.57
2018-02-11T03:34:29.342Z,13.23
2018-02-11T03:36:56.811Z,15.93
2018-02-11T03:39:24.288Z,13.13
2018-02-11T03:41:51.733Z,15.63
2018-02-11T03:44:19.182Z,15.80
2018-02-11T03:46:46.638Z,12.80
2018-02-11T03:49:14.094Z,14.00
2018-02-11T03:51:41.546Z,11.30
2018-02-11T03:54:08.991Z,13.23
2018-02-11T03:56:36.467Z,14.77
2018-02-11T03:59:03.920Z,12.50
2018-02-11T04:01:31.371Z,14.87
2018-02-11T04:03:58.827Z,15.37
2018-02-11T04:06:26.282Z,11.73
2018-02-11T04:08:53.730Z,12.50
2018-02-11T04:11:21.174Z,13.90
2018-02-11T04:13:48.639Z,12.83
2018-02-11T04:16:16.094Z,15.83
2018-02-11T04:18:43.551Z,11.63
2018-02-11T04:21:10.998Z,15.23
2018-02-11T04:23:38.469Z,15.50
2018-02-11T04:26:05.916Z,11.97
2018-02-11T04:28:33.366Z,11.23
2018-02-11T04:31:00.820Z,12.83
2018-02-11T04:33:28.276Z,12.50
2018-02-11T04:35:55.717Z,9.20
2018-02-11T04:38:23.180Z,9.40
2018-02-11T04:40:50.632Z,7.90
2018-02-11T04:43:18.088Z,8.53
2018-02-11T04:45:45.531Z,7.30
2018-02-11T04:48:12.977Z,8.47
2018-02-11T04:50:40.419Z,9.83
2018-02-11T04:53:08.627Z,9.40
2018-02-11T04:55:36.087Z,7.13
2018-02-11T04:58:03.542Z,7.53
2018-02-11T05:00:31.021Z,7.77
2018-02-11T05:02:58.470Z,7.00
2018-02-11T05:05:25.910Z,9.10
2018-02-11T05:07:53.371Z,8.80
2018-02-11T05:10:20.823Z,10.33
2018-02-11T05:12:48.276Z,8.57
2018-02-11T05:15:15.720Z,8.63
2018-02-11T05:17:43.163Z,7.23
2018-02-11T05:20:10.610Z,8.83
2018-02-11T05:22:38.819Z,7.97
2018-02-11T05:25:06.278Z,7.07
2018-02-11T05:27:33.727Z,7.53
2018-02-11T05:30:01.171Z,8.33
2018-02-11T05:32:28.606Z,9.50
2018-02-11T05:34:56.831Z,7.90
2018-02-11T05:37:24.269Z,8.87
2018-02-11T05:39:51.730Z,6.50
2018-02-11T05:42:19.181Z,8.07
2018-02-11T05:44:46.632Z,7.07
2018-02-11T05:47:14.077Z,7.20
2018-02-11T05:49:41.527Z,8.50
2018-02-11T05:52:08.965Z,7.27
2018-02-11T05:54:37.181Z,6.83
2018-02-11T05:57:04.618Z,7.73
2018-02-11T05:59:32.091Z,6.30
2018-02-11T06:01:59.541Z,5.73
2018-02-11T06:04:26.983Z,6.17
2018-02-11T06:06:54.426Z,6.13
2018-02-11T06:09:22.647Z,7.80
2018-02-11T06:11:50.091Z,7.73
2018-02-11T06:14:18.306Z,7.20
2018-02-11T06:16:45.764Z,10.00
2018-02-11T06:19:13.210Z,8.80
2018-02-11T06:21:40.662Z,7.70
2018-02-11T06:24:08.123Z,6.03
2018-02-11T06:26:42.317Z,7.10
2018-02-11T06:29:09.766Z,6.47
2018-02-11T06:31:37.215Z,6.37
2018-02-11T06:34:04.671Z,7.50
2018-02-11T06:36:32.109Z,7.70
2018-02-11T06:38:59.618Z,5.37
2018-02-11T06:41:27.067Z,6.13
2018-02-11T06:43:54.507Z,6.10
2018-02-11T06:46:21.967Z,6.23
2018-02-11T06:48:49.407Z,6.80
2018-02-11T06:51:16.864Z,6.60
2018-02-11T06:53:44.302Z,8.40
2018-02-11T06:56:11.742Z,8.33
2018-02-11T06:58:39.959Z,6.90
2018-02-11T07:01:07.403Z,7.20
2018-02-11T07:03:34.846Z,8.17
2018-02-11T07:06:02.294Z,6.83
2018-02-11T07:08:29.753Z,6.20
2018-02-11T07:10:57.198Z,7.70
2018-02-11T07:13:24.639Z,7.87
2018-02-11T07:15:52.083Z,7.57
2018-02-11T07:18:20.483Z,8.77
2018-02-11T07:20:48.715Z,7.07
2018-02-11T07:23:16.162Z,6.87
2018-02-11T07:25:43.611Z,5.57
2018-02-11T07:28:11.067Z,10.63
2018-02-11T07:30:38.523Z,5.53
2018-02-11T07:33:09.192Z,4.53
2018-02-11T07:35:36.671Z,6.40
2018-02-11T07:38:04.903Z,7.90
2018-02-11T07:40:32.359Z,6.50
2018-02-11T07:42:59.807Z,6.80
2018-02-11T07:45:27.254Z,8.80
2018-02-11T07:47:54.707Z,6.27
2018-02-11T07:50:22.162Z,10.53
2018-02-11T07:52:50.390Z,8.53
2018-02-11T07:55:17.837Z,7.03
2018-02-11T07:57:45.283Z,10.40
2018-02-11T08:00:12.732Z,9.50
2018-02-11T08:02:40.184Z,7.93
2018-02-11T08:05:07.648Z,26.77
2018-02-11T08:07:35.110Z,9.30
2018-02-11T08:10:02.562Z,13.63
2018-02-11T08:12:30.107Z,6.83
2018-02-11T08:14:57.546Z,8.60
2018-02-11T08:17:24.998Z,7.73
2018-02-11T08:19:52.454Z,8.03
2018-02-11T08:22:19.911Z,8.37
2018-02-11T08:24:47.350Z,8.37
2018-02-11T08:27:14.804Z,17.47
2018-02-11T08:29:42.258Z,17.10
2018-02-11T08:32:10.479Z,12.70
2018-02-11T08:34:37.926Z,11.17
2018-02-11T08:37:05.391Z,15.67
2018-02-11T08:39:32.847Z,10.43
2018-02-11T08:42:00.303Z,9.30
2018-02-11T08:44:27.751Z,7.10
2018-02-11T08:46:55.258Z,7.93
2018-02-11T08:49:23.482Z,7.97
2018-02-11T08:51:50.942Z,10.13
2018-02-11T08:54:18.397Z,11.00
2018-02-11T08:56:45.850Z,8.17
2018-02-11T08:59:13.862Z,7.43
2018-02-11T09:01:42.082Z,7.33
2018-02-11T09:04:10.304Z,8.20
2018-02-11T09:06:37.745Z,7.20
2018-02-11T09:09:05.206Z,7.07
2018-02-11T09:11:32.654Z,10.87
2018-02-11T09:14:00.111Z,9.87
2018-02-11T09:16:27.571Z,10.00
2018-02-11T09:18:55.023Z,7.57
2018-02-11T09:21:22.485Z,7.87
2018-02-11T09:23:49.934Z,10.00
2018-02-11T09:26:17.390Z,8.27
2018-02-11T09:28:44.853Z,8.70
2018-02-11T09:31:12.306Z,9.67
2018-02-11T09:33:39.764Z,8.20
2018-02-11T09:36:07.214Z,6.23
2018-02-11T09:38:34.670Z,8.27
2018-02-11T09:41:02.135Z,7.93
2018-02-11T09:43:29.582Z,9.83
2018-02-11T09:45:57.482Z,9.27
2018-02-11T09:48:26.138Z,7.83
2018-02-11T09:50:53.567Z,8.20
2018-02-11T09:53:21.028Z,11.13
2018-02-11T09:55:48.591Z,8.03
2018-02-11T09:58:16.079Z,10.20
2018-02-11T10:00:43.531Z,9.73
2018-02-11T10:03:10.992Z,9.97
2018-02-11T10:05:38.435Z,8.87
2018-02-11T10:08:05.998Z,14.10
2018-02-11T10:10:33.474Z,8.33
2018-02-11T10:13:00.966Z,7.97
2018-02-11T10:15:28.444Z,8.47
2018-02-11T10:17:55.905Z,7.67
2018-02-11T10:20:23.367Z,11.07
2018-02-11T10:22:50.813Z,7.30
2018-02-11T10:25:18.270Z,6.00
2018-02-11T10:27:45.714Z,7.10
2018-02-11T10:30:13.163Z,8.20
2018-02-11T10:32:40.602Z,5.40
2018-02-11T10:35:08.053Z,5.53
2018-02-11T10:37:35.501Z,4.67
2018-02-11T10:40:03.703Z,4.80
2018-02-11T10:42:31.145Z,6.93
2018-02-11T10:44:58.590Z,7.50
2018-02-11T10:47:26.026Z,6.83
2018-02-11T10:49:54.246Z,6.37
2018-02-11T10:52:21.977Z,5.40
2018-02-11T10:54:50.182Z,6.67
2018-02-11T10:57:17.632Z,14.53
2018-02-11T10:59:45.075Z,5.20
2018-02-11T11:02:12.510Z,7.57
2018-02-11T11:04:40.724Z,5.20
2018-02-11T11:07:08.159Z,5.00
2018-02-11T11:09:35.611Z,6.50
2018-02-11T11:12:03.050Z,3.53
2018-02-11T11:14:30.502Z,9.07
2018-02-11T11:16:57.938Z,5.70
2018-02-11T11:19:25.433Z,5.10
2018-02-11T11:21:53.643Z,4.90
2018-02-11T11:24:21.095Z,7.20
2018-02-11T11:26:48.551Z,6.17
2018-02-11T11:29:15.994Z,4.97
2018-02-11T11:31:43.461Z,5.47
2018-02-11T11:34:11.002Z,6.20
2018-02-11T11:36:38.541Z,4.40
2018-02-11T11:39:06.760Z,6.83
2018-02-11T11:41:34.227Z,5.07
2018-02-11T11:44:01.683Z,6.07
2018-02-11T11:46:29.123Z,6.00
2018-02-11T11:48:56.584Z,4.80
2018-02-11T11:51:24.058Z,5.20
2018-02-11T11:53:51.512Z,5.90
2018-02-11T11:56:18.981Z,10.63
2018-02-11T11:58:46.501Z,5.90
2018-02-11T12:01:13.967Z,4.20
2018-02-11T12:03:41.424Z,7.43
2018-02-11T12:06:08.907Z,3.93
2018-02-11T12:08:36.368Z,3.03
2018-02-11T12:11:03.827Z,5.57
2018-02-11T12:13:31.305Z,4.77
2018-02-11T12:15:59.518Z,4.17
2018-02-11T12:18:27.120Z,3.30
2018-02-11T12:20:54.577Z,3.23
2018-02-11T12:23:22.095Z,3.23
2018-02-11T12:25:49.608Z,3.47
2018-02-11T12:28:17.036Z,3.27
2018-02-11T12:30:44.503Z,3.03
2018-02-11T12:33:11.981Z,3.17
2018-02-11T12:35:40.215Z,5.50
2018-02-11T12:38:07.695Z,3.30
2018-02-11T12:40:35.174Z,6.50
2018-02-11T12:43:03.412Z,5.20
2018-02-11T12:45:30.888Z,4.07
2018-02-11T12:47:58.348Z,2.70
2018-02-11T12:50:26.580Z,2.87
2018-02-11T12:52:54.036Z,2.97
2018-02-11T12:55:21.567Z,6.10
2018-02-11T12:57:49.083Z,6.67
2018-02-11T13:00:16.527Z,3.10
2018-02-11T13:02:43.983Z,3.60
2018-02-11T13:05:11.428Z,3.30
2018-02-11T13:07:39.895Z,3.23
2018-02-11T13:10:08.116Z,2.60
2018-02-11T13:12:35.610Z,3.10
2018-02-11T13:15:03.123Z,4.40
2018-02-11T13:17:30.600Z,4.20
2018-02-11T13:19:58.840Z,4.30
2018-02-11T13:22:26.299Z,3.47
2018-02-11T13:24:53.795Z,5.97
2018-02-11T13:27:21.246Z,5.70
2018-02-11T13:29:50.319Z,4.63
2018-02-11T13:32:19.769Z,3.10
2018-02-11T13:34:47.279Z,1.53
2018-02-11T13:37:14.728Z,2.27
2018-02-11T13:39:42.184Z,2.03
2018-02-11T13:42:09.637Z,1.57
2018-02-11T13:44:37.093Z,2.00
2018-02-11T13:47:04.535Z,1.47
2018-02-11T13:49:31.994Z,5.40
2018-02-11T13:51:59.429Z,1.40
2018-02-11T13:54:26.882Z,2.20
2018-02-11T13:56:54.318Z,2.90
2018-02-11T13:59:21.763Z,2.57
2018-02-11T14:01:49.973Z,2.50
2018-02-11T14:04:17.420Z,3.17
2018-02-11T14:06:44.859Z,3.30
2018-02-11T14:09:12.311Z,1.73
2018-02-11T14:11:39.767Z,1.70
2018-02-11T14:14:07.212Z,1.50
2018-02-11T14:16:35.418Z,1.70
2018-02-11T14:19:02.871Z,2.50
2018-02-11T14:21:30.306Z,2.00
2018-02-11T14:23:57.764Z,1.80
2018-02-11T14:26:25.196Z,2.27
2018-02-11T14:28:52.658Z,2.90
2018-02-11T14:31:20.118Z,1.87
2018-02-11T14:33:48.345Z,2.10
2018-02-11T14:36:15.798Z,2.00
2018-02-11T14:38:43.242Z,2.30
2018-02-11T14:41:10.688Z,3.63
2018-02-11T14:43:38.152Z,2.50
2018-02-11T14:46:05.608Z,5.93
2018-02-11T14:48:33.051Z,12.07
2018-02-11T14:51:00.499Z,22.50
2018-02-11T14:53:28.719Z,7.07
2018-02-11T14:55:56.167Z,2.80
2018-02-11T14:58:23.605Z,3.00
2018-02-11T15:00:51.269Z,3.03
2018-02-11T15:03:18.703Z,3.60
2018-02-11T15:05:46.146Z,2.40
2018-02-11T15:08:14.350Z,3.00
2018-02-11T15:10:41.797Z,2.60
2018-02-11T15:13:09.234Z,6.03
2018-02-11T15:15:36.677Z,4.60
2018-02-11T15:18:04.116Z,2.77
2018-02-11T15:20:31.567Z,2.50
2018-02-11T15:22:59.002Z,2.40
2018-02-11T15:25:26.454Z,2.40
2018-02-11T15:27:53.899Z,3.23
2018-02-11T15:30:21.342Z,3.23
2018-02-11T15:32:48.779Z,2.50
2018-02-11T15:35:16.227Z,2.80
2018-02-11T15:37:43.663Z,5.47
2018-02-11T15:40:11.128Z,4.47
2018-02-11T15:42:38.566Z,4.63
2018-02-11T15:45:06.014Z,2.40
2018-02-11T15:47:33.499Z,4.60
2018-02-11T15:50:00.939Z,3.33
2018-02-11T15:52:28.387Z,4.03
2018-02-11T15:54:55.829Z,3.30
2018-02-11T15:57:23.272Z,3.50
2018-02-11T15:59:50.711Z,2.87
2018-02-11T16:02:18.164Z,3.50
2018-02-11T16:04:45.664Z,3.20
2018-02-11T16:07:13.114Z,3.50
2018-02-11T16:09:40.560Z,3.27
2018-02-11T16:12:08.010Z,3.27
2018-02-11T16:14:35.467Z,6.10
2018-02-11T16:17:02.919Z,3.50
2018-02-11T16:19:30.375Z,4.40
2018-02-11T16:21:57.901Z,3.83
2018-02-11T16:24:25.314Z,2.97
2018-02-11T16:26:52.774Z,3.20
2018-02-11T16:29:20.211Z,3.10
2018-02-11T16:31:47.661Z,3.60
2018-02-11T16:34:15.110Z,4.63
2018-02-11T16:36:42.571Z,4.40
2018-02-11T16:39:10.012Z,4.70
2018-02-11T16:41:37.455Z,4.10
2018-02-11T16:44:05.667Z,5.43
2018-02-11T16:46:33.114Z,2.37
2018-02-11T16:49:00.566Z,2.90
2018-02-11T16:51:28.034Z,3.53
2018-02-11T16:53:55.476Z,2.87
2018-02-11T16:56:22.920Z,3.03
2018-02-11T16:58:50.367Z,2.53
2018-02-11T17:01:17.811Z,2.37
2018-02-11T17:03:46.026Z,2.73
2018-02-11T17:06:13.503Z,2.30
2018-02-11T17:08:40.953Z,2.67
2018-02-11T17:11:08.395Z,3.07
2018-02-11T17:13:35.847Z,2.33
2018-02-11T17:16:03.322Z,3.33
2018-02-11T17:18:30.788Z,2.80
2018-02-11T17:20:58.237Z,4.13
2018-02-11T17:23:25.692Z,3.83
2018-02-11T17:25:53.132Z,2.77
2018-02-11T17:28:20.587Z,2.80
2018-02-11T17:30:48.026Z,4.00
2018-02-11T17:33:15.471Z,3.87
2018-02-11T17:35:43.674Z,3.47
2018-02-11T17:38:11.126Z,4.70
2018-02-11T17:40:39.338Z,3.50
2018-02-11T17:43:06.791Z,5.40
2018-02-11T17:45:34.235Z,3.90
2018-02-11T17:48:01.688Z,4.50
2018-02-11T17:50:29.126Z,5.10
2018-02-11T17:52:56.578Z,5.10
2018-02-11T17:55:24.020Z,5.83
2018-02-11T17:57:51.465Z,3.77
2018-02-11T18:00:19.684Z,5.53
2018-02-11T18:02:47.148Z,8.57
2018-02-11T18:05:14.594Z,2.50
2018-02-11T18:07:42.071Z,7.63
2018-02-11T18:10:09.519Z,3.37
2018-02-11T18:12:36.959Z,4.83
2018-02-11T18:15:04.418Z,3.43
2018-02-11T18:17:31.854Z,5.70
2018-02-11T18:19:59.314Z,4.73
2018-02-11T18:22:26.754Z,4.57
2018-02-11T18:24:54.200Z,4.90
2018-02-11T18:27:22.398Z,5.70
2018-02-11T18:29:49.845Z,7.00
2018-02-11T18:32:17.274Z,5.97
2018-02-11T18:34:45.488Z,6.83
2018-02-11T18:37:12.920Z,7.30
2018-02-11T18:39:40.378Z,3.90
2018-02-11T18:42:07.819Z,10.03
2018-02-11T18:44:36.036Z,5.20
2018-02-11T18:47:03.485Z,6.20
2018-02-11T18:49:30.932Z,4.90
2018-02-11T18:51:58.371Z,4.10
2018-02-11T18:54:25.814Z,4.40
2018-02-11T18:56:54.031Z,5.03
2018-02-11T18:59:21.484Z,4.80
2018-02-11T19:01:48.934Z,4.20
2018-02-11T19:04:16.378Z,8.50
2018-02-11T19:06:43.824Z,7.17
2018-02-11T19:09:13.943Z,11.37
2018-02-11T19:11:41.383Z,9.40
2018-02-11T19:14:09.603Z,14.00
2018-02-11T19:16:37.062Z,7.57
2018-02-11T19:19:04.502Z,5.67
2018-02-11T19:21:45.811Z,4.90
2018-02-11T19:24:13.251Z,4.60
2018-02-11T19:26:40.752Z,10.23
2018-02-11T19:29:08.144Z,4.63
2018-02-11T19:31:35.598Z,4.70
2018-02-11T19:34:03.039Z,5.90
2018-02-11T19:36:31.254Z,3.63
2018-02-11T19:38:58.698Z,6.17
2018-02-11T19:41:26.174Z,6.93
2018-02-11T19:43:53.621Z,7.03
2018-02-11T19:46:21.066Z,9.00
2018-02-11T19:48:49.277Z,5.70
2018-02-11T19:51:16.723Z,4.93
2018-02-11T19:53:44.176Z,8.60
2018-02-11T19:56:11.615Z,5.50
2018-02-11T19:58:39.063Z,7.00
2018-02-11T20:04:01.283Z,8.43
2018-02-11T20:06:29.494Z,6.90
2018-02-11T20:08:56.932Z,9.80
2018-02-11T20:11:24.384Z,5.70
2018-02-11T20:13:51.861Z,6.27
2018-02-11T20:16:19.332Z,6.67
2018-02-11T20:18:46.829Z,7.63
2018-02-11T20:21:14.303Z,11.00
2018-02-11T20:23:42.523Z,7.73
2018-02-11T20:26:09.983Z,6.47
2018-02-11T20:28:37.429Z,7.40
2018-02-11T20:31:04.883Z,6.00
2018-02-11T20:33:32.330Z,6.93
2018-02-11T20:35:59.787Z,6.40
2018-02-11T20:38:27.227Z,3.93
2018-02-11T20:40:54.703Z,8.30
2018-02-11T20:43:22.158Z,7.30
2018-02-11T20:45:49.624Z,4.90
2018-02-11T20:48:17.108Z,9.80
2018-02-11T20:50:44.582Z,8.37
2018-02-11T20:53:12.088Z,3.90
2018-02-11T20:55:39.574Z,6.67
2018-02-11T20:58:07.020Z,6.77
2018-02-11T21:00:34.467Z,3.40
2018-02-11T21:03:01.921Z,6.23
2018-02-11T21:05:29.395Z,8.80
2018-02-11T21:07:56.922Z,7.70
2018-02-11T21:10:24.477Z,7.03
2018-02-11T21:12:51.962Z,4.70
2018-02-11T21:15:19.452Z,6.87
2018-02-11T21:17:46.917Z,6.37
2018-02-11T21:20:14.377Z,6.80
2018-02-11T21:22:41.830Z,7.33
2018-02-11T21:25:10.081Z,5.03
2018-02-11T21:27:37.579Z,7.87
2018-02-11T21:30:05.875Z,4.67
2018-02-11T21:32:33.395Z,13.27
2018-02-11T21:35:00.888Z,5.07
2018-02-11T21:37:28.335Z,6.63
2018-02-11T21:39:56.553Z,6.07
2018-02-11T21:42:24.061Z,5.47
2018-02-11T21:44:52.290Z,5.13
2018-02-11T21:47:19.779Z,5.10
2018-02-11T21:49:47.238Z,6.13
2018-02-11T21:52:14.727Z,7.80
2018-02-11T21:54:42.177Z,10.20
2018-02-11T21:57:09.667Z,7.23
2018-02-11T21:59:37.138Z,6.83
2018-02-11T22:02:04.611Z,9.13
2018-02-11T22:04:32.103Z,7.53
2018-02-11T22:06:59.572Z,8.37
2018-02-11T22:09:27.051Z,8.60
2018-02-11T22:11:54.527Z,10.90
2018-02-11T22:14:21.988Z,10.47
2018-02-11T22:16:49.454Z,7.33
2018-02-11T22:19:16.941Z,7.87
2018-02-11T22:21:45.200Z,5.83
2018-02-11T22:24:13.484Z,10.33
2018-02-11T22:26:41.711Z,11.33
2018-02-11T22:29:09.192Z,5.23
2018-02-11T22:31:36.647Z,2.90
2018-02-11T22:34:04.108Z,5.50
2018-02-11T22:36:31.565Z,7.13
2018-02-11T22:38:59.011Z,5.83
2018-02-11T22:41:26.475Z,5.37
2018-02-11T22:43:53.936Z,4.60
2018-02-11T22:46:21.417Z,12.47
2018-02-11T22:48:49.643Z,6.37
2018-02-11T22:51:17.102Z,4.50
2018-02-11T22:53:44.579Z,6.17
2018-02-11T22:56:12.047Z,7.97
2018-02-11T22:58:39.507Z,12.97
2018-02-11T23:01:06.976Z,7.00
2018-02-11T23:03:34.454Z,5.90
2018-02-11T23:06:02.006Z,5.53
2018-02-11T23:08:29.451Z,7.03
2018-02-11T23:10:57.718Z,6.87
2018-02-11T23:13:25.951Z,8.60
2018-02-11T23:15:53.414Z,10.03
2018-02-11T23:18:20.869Z,7.30
2018-02-11T23:20:48.346Z,6.57
2018-02-11T23:23:15.825Z,9.33
2018-02-11T23:25:44.097Z,10.97
2018-02-11T23:28:11.546Z,12.33
2018-02-11T23:30:38.994Z,11.97
2018-02-11T23:33:06.466Z,13.00
2018-02-11T23:35:34.948Z,11.90
2018-02-11T23:38:02.782Z,8.70
2018-02-11T23:40:30.259Z,7.93
2018-02-11T23:42:57.751Z,8.77
2018-02-11T23:45:26.195Z,10.10
2018-02-11T23:47:53.707Z,7.23
2018-02-11T23:50:21.182Z,7.70
2018-02-11T23:52:48.632Z,9.00
2018-02-11T23:55:16.127Z,9.43
2018-02-11T23:57:43.575Z,7.40
